Terminal Aerodrome Forecast
Issued by NWS

Home | Current Version | Previous Version | Text Only | Print | Product List | Glossary On
Versions: 1 2 3 4 5 6 7 8 9 10 11 12 13 14 15 16 17
000
FTUS45 KFGZ 311729
TAFGCN
TAF
KGCN 311729Z 3118/0118 21012KT P6SM VCTS SCT050CB BKN110
      TEMPO 3118/3122 VRB15G30KT 4SM TSRA OVC050CB
     FM010200 VRB05KT P6SM BKN060=

USA.gov is the U.S. government's official web portal to all federal, state and local government web resources and services.